sensor_id;sensor_type;location;lat;lon;timestamp;P1;durP1;ratioP1;P2;durP2;ratioP2
11743;SDS011;5929;51.906;7.674;2024-01-16T00:00:56;13.68;;;5.53;;
11743;SDS011;5929;51.906;7.674;2024-01-16T00:03:23;13.73;;;6.63;;
11743;SDS011;5929;51.906;7.674;2024-01-16T00:05:50;12.07;;;6.13;;
11743;SDS011;5929;51.906;7.674;2024-01-16T00:08:18;14.18;;;6.03;;
11743;SDS011;5929;51.906;7.674;2024-01-16T00:10:45;14.07;;;5.75;;
11743;SDS011;5929;51.906;7.674;2024-01-16T00:13:12;14.55;;;5.80;;
11743;SDS011;5929;51.906;7.674;2024-01-16T00:15:39;15.63;;;5.47;;
11743;SDS011;5929;51.906;7.674;2024-01-16T00:18:06;13.80;;;5.50;;
11743;SDS011;5929;51.906;7.674;2024-01-16T00:20:34;12.65;;;5.70;;
11743;SDS011;5929;51.906;7.674;2024-01-16T00:23:01;14.65;;;5.55;;
11743;SDS011;5929;51.906;7.674;2024-01-16T00:25:29;19.13;;;6.18;;
11743;SDS011;5929;51.906;7.674;2024-01-16T00:27:56;9.60;;;5.50;;
11743;SDS011;5929;51.906;7.674;2024-01-16T00:30:22;12.32;;;6.00;;
11743;SDS011;5929;51.906;7.674;2024-01-16T00:32:49;17.30;;;5.18;;
11743;SDS011;5929;51.906;7.674;2024-01-16T00:35:19;21.67;;;5.65;;
11743;SDS011;5929;51.906;7.674;2024-01-16T00:37:46;15.38;;;5.70;;
11743;SDS011;5929;51.906;7.674;2024-01-16T00:40:13;17.38;;;5.72;;
11743;SDS011;5929;51.906;7.674;2024-01-16T00:42:42;14.23;;;5.15;;
11743;SDS011;5929;51.906;7.674;2024-01-16T00:45:09;11.93;;;5.28;;
11743;SDS011;5929;51.906;7.674;2024-01-16T00:47:35;12.77;;;5.10;;
11743;SDS011;5929;51.906;7.674;2024-01-16T00:50:02;11.25;;;5.38;;
11743;SDS011;5929;51.906;7.674;2024-01-16T00:52:30;8.82;;;4.72;;
11743;SDS011;5929;51.906;7.674;2024-01-16T00:54:56;12.93;;;5.03;;
11743;SDS011;5929;51.906;7.674;2024-01-16T00:57:23;17.27;;;5.50;;
11743;SDS011;5929;51.906;7.674;2024-01-16T00:59:51;16.58;;;6.43;;
11743;SDS011;5929;51.906;7.674;2024-01-16T01:02:18;12.75;;;5.82;;
11743;SDS011;5929;51.906;7.674;2024-01-16T01:04:45;13.95;;;5.55;;
11743;SDS011;5929;51.906;7.674;2024-01-16T01:07:13;15.63;;;6.25;;
11743;SDS011;5929;51.906;7.674;2024-01-16T01:09:40;13.68;;;5.50;;
11743;SDS011;5929;51.906;7.674;2024-01-16T01:12:07;13.07;;;5.60;;
11743;SDS011;5929;51.906;7.674;2024-01-16T01:14:35;13.77;;;6.10;;
11743;SDS011;5929;51.906;7.674;2024-01-16T01:17:10;12.48;;;5.78;;
11743;SDS011;5929;51.906;7.674;2024-01-16T01:19:37;12.50;;;5.97;;
11743;SDS011;5929;51.906;7.674;2024-01-16T01:22:06;14.27;;;7.10;;
11743;SDS011;5929;51.906;7.674;2024-01-16T01:24:33;13.98;;;6.20;;
11743;SDS011;5929;51.906;7.674;2024-01-16T01:27:00;20.33;;;7.32;;
11743;SDS011;5929;51.906;7.674;2024-01-16T01:29:26;10.63;;;5.95;;
11743;SDS011;5929;51.906;7.674;2024-01-16T01:31:53;12.82;;;6.50;;
11743;SDS011;5929;51.906;7.674;2024-01-16T01:34:22;17.40;;;7.18;;
11743;SDS011;5929;51.906;7.674;2024-01-16T01:36:48;13.85;;;6.40;;
11743;SDS011;5929;51.906;7.674;2024-01-16T01:39:15;16.40;;;7.10;;
11743;SDS011;5929;51.906;7.674;2024-01-16T01:41:42;12.25;;;6.50;;
11743;SDS011;5929;51.906;7.674;2024-01-16T01:44:09;13.93;;;7.22;;
11743;SDS011;5929;51.906;7.674;2024-01-16T01:46:40;14.88;;;7.43;;
11743;SDS011;5929;51.906;7.674;2024-01-16T01:49:08;14.80;;;6.80;;
11743;SDS011;5929;51.906;7.674;2024-01-16T01:51:36;17.35;;;7.38;;
11743;SDS011;5929;51.906;7.674;2024-01-16T01:54:03;16.90;;;6.70;;
11743;SDS011;5929;51.906;7.674;2024-01-16T01:56:30;17.23;;;7.80;;
11743;SDS011;5929;51.906;7.674;2024-01-16T01:58:58;18.75;;;8.35;;
11743;SDS011;5929;51.906;7.674;2024-01-16T02:01:27;17.90;;;7.75;;
11743;SDS011;5929;51.906;7.674;2024-01-16T02:03:56;14.77;;;7.47;;
11743;SDS011;5929;51.906;7.674;2024-01-16T02:06:25;15.23;;;7.65;;
11743;SDS011;5929;51.906;7.674;2024-01-16T02:08:53;16.63;;;8.18;;
11743;SDS011;5929;51.906;7.674;2024-01-16T02:11:20;20.25;;;8.18;;
11743;SDS011;5929;51.906;7.674;2024-01-16T02:13:47;14.27;;;7.88;;
11743;SDS011;5929;51.906;7.674;2024-01-16T02:16:19;12.90;;;7.53;;
11743;SDS011;5929;51.906;7.674;2024-01-16T02:18:47;12.10;;;7.13;;
11743;SDS011;5929;51.906;7.674;2024-01-16T02:21:15;17.83;;;7.50;;
11743;SDS011;5929;51.906;7.674;2024-01-16T02:23:46;16.02;;;7.88;;
11743;SDS011;5929;51.906;7.674;2024-01-16T02:26:14;21.38;;;7.65;;
11743;SDS011;5929;51.906;7.674;2024-01-16T02:28:41;17.55;;;7.60;;
11743;SDS011;5929;51.906;7.674;2024-01-16T02:31:08;14.48;;;7.68;;
11743;SDS011;5929;51.906;7.674;2024-01-16T02:33:35;20.02;;;7.82;;
11743;SDS011;5929;51.906;7.674;2024-01-16T02:36:02;20.85;;;7.85;;
11743;SDS011;5929;51.906;7.674;2024-01-16T02:38:29;14.52;;;8.02;;
11743;SDS011;5929;51.906;7.674;2024-01-16T02:40:57;16.90;;;8.20;;
11743;SDS011;5929;51.906;7.674;2024-01-16T02:43:23;20.27;;;8.38;;
11743;SDS011;5929;51.906;7.674;2024-01-16T02:45:51;18.90;;;8.30;;
11743;SDS011;5929;51.906;7.674;2024-01-16T02:48:19;18.10;;;8.73;;
11743;SDS011;5929;51.906;7.674;2024-01-16T02:50:46;17.40;;;8.27;;
11743;SDS011;5929;51.906;7.674;2024-01-16T02:53:13;19.45;;;8.82;;
11743;SDS011;5929;51.906;7.674;2024-01-16T02:55:40;21.67;;;9.00;;
11743;SDS011;5929;51.906;7.674;2024-01-16T02:58:08;15.73;;;7.85;;
11743;SDS011;5929;51.906;7.674;2024-01-16T03:00:35;19.48;;;8.32;;
11743;SDS011;5929;51.906;7.674;2024-01-16T03:03:02;16.75;;;8.27;;
11743;SDS011;5929;51.906;7.674;2024-01-16T03:05:29;14.75;;;7.68;;
11743;SDS011;5929;51.906;7.674;2024-01-16T03:07:56;17.58;;;7.95;;
11743;SDS011;5929;51.906;7.674;2024-01-16T03:10:23;13.38;;;6.82;;
11743;SDS011;5929;51.906;7.674;2024-01-16T03:12:50;15.32;;;7.50;;
11743;SDS011;5929;51.906;7.674;2024-01-16T03:15:18;15.20;;;7.85;;
11743;SDS011;5929;51.906;7.674;2024-01-16T03:17:45;15.10;;;7.25;;
11743;SDS011;5929;51.906;7.674;2024-01-16T03:20:12;17.63;;;7.00;;
11743;SDS011;5929;51.906;7.674;2024-01-16T03:22:39;11.43;;;6.78;;
11743;SDS011;5929;51.906;7.674;2024-01-16T03:25:07;13.82;;;6.25;;
11743;SDS011;5929;51.906;7.674;2024-01-16T03:27:35;18.15;;;7.03;;
11743;SDS011;5929;51.906;7.674;2024-01-16T03:30:02;14.00;;;5.85;;
11743;SDS011;5929;51.906;7.674;2024-01-16T03:32:31;11.40;;;5.70;;
11743;SDS011;5929;51.906;7.674;2024-01-16T03:34:58;14.10;;;6.00;;
11743;SDS011;5929;51.906;7.674;2024-01-16T03:37:25;15.68;;;6.00;;
11743;SDS011;5929;51.906;7.674;2024-01-16T03:39:51;12.05;;;5.60;;
11743;SDS011;5929;51.906;7.674;2024-01-16T03:42:19;11.98;;;6.20;;
11743;SDS011;5929;51.906;7.674;2024-01-16T03:44:46;17.58;;;5.68;;
11743;SDS011;5929;51.906;7.674;2024-01-16T03:47:13;12.02;;;5.47;;
11743;SDS011;5929;51.906;7.674;2024-01-16T03:49:41;11.05;;;4.55;;
11743;SDS011;5929;51.906;7.674;2024-01-16T03:52:08;11.57;;;4.88;;
11743;SDS011;5929;51.906;7.674;2024-01-16T03:54:35;11.65;;;4.93;;
11743;SDS011;5929;51.906;7.674;2024-01-16T03:57:02;12.88;;;5.70;;
11743;SDS011;5929;51.906;7.674;2024-01-16T03:59:29;14.85;;;5.15;;
11743;SDS011;5929;51.906;7.674;2024-01-16T04:01:55;12.80;;;5.22;;
11743;SDS011;5929;51.906;7.674;2024-01-16T04:04:22;12.25;;;5.72;;
11743;SDS011;5929;51.906;7.674;2024-01-16T04:06:50;14.32;;;5.38;;
11743;SDS011;5929;51.906;7.674;2024-01-16T04:09:17;14.25;;;5.13;;
11743;SDS011;5929;51.906;7.674;2024-01-16T04:11:44;9.90;;;4.93;;
11743;SDS011;5929;51.906;7.674;2024-01-16T04:14:12;13.32;;;5.43;;
11743;SDS011;5929;51.906;7.674;2024-01-16T04:16:39;14.15;;;5.97;;
11743;SDS011;5929;51.906;7.674;2024-01-16T04:19:06;15.02;;;5.47;;
11743;SDS011;5929;51.906;7.674;2024-01-16T04:21:32;14.45;;;5.63;;
11743;SDS011;5929;51.906;7.674;2024-01-16T04:24:01;13.45;;;5.18;;
11743;SDS011;5929;51.906;7.674;2024-01-16T04:26:28;14.90;;;6.75;;
11743;SDS011;5929;51.906;7.674;2024-01-16T04:28:54;12.45;;;6.03;;
11743;SDS011;5929;51.906;7.674;2024-01-16T04:31:21;11.88;;;6.13;;
11743;SDS011;5929;51.906;7.674;2024-01-16T04:33:48;15.25;;;5.80;;
11743;SDS011;5929;51.906;7.674;2024-01-16T04:36:15;14.88;;;5.93;;
11743;SDS011;5929;51.906;7.674;2024-01-16T04:38:42;14.00;;;6.25;;
11743;SDS011;5929;51.906;7.674;2024-01-16T04:41:10;12.43;;;5.13;;
11743;SDS011;5929;51.906;7.674;2024-01-16T04:43:36;15.02;;;5.53;;
11743;SDS011;5929;51.906;7.674;2024-01-16T04:46:03;15.02;;;6.40;;
11743;SDS011;5929;51.906;7.674;2024-01-16T04:48:30;11.07;;;5.97;;
11743;SDS011;5929;51.906;7.674;2024-01-16T04:50:58;16.50;;;6.18;;
11743;SDS011;5929;51.906;7.674;2024-01-16T04:53:25;15.32;;;6.38;;
11743;SDS011;5929;51.906;7.674;2024-01-16T04:55:51;15.60;;;6.55;;
11743;SDS011;5929;51.906;7.674;2024-01-16T04:58:19;15.23;;;6.75;;
11743;SDS011;5929;51.906;7.674;2024-01-16T05:00:46;13.45;;;6.70;;
11743;SDS011;5929;51.906;7.674;2024-01-16T05:03:13;14.88;;;7.22;;
11743;SDS011;5929;51.906;7.674;2024-01-16T05:05:40;14.68;;;6.22;;
11743;SDS011;5929;51.906;7.674;2024-01-16T05:08:08;16.17;;;6.15;;
11743;SDS011;5929;51.906;7.674;2024-01-16T05:10:35;17.10;;;7.40;;
11743;SDS011;5929;51.906;7.674;2024-01-16T05:13:02;14.02;;;5.70;;
11743;SDS011;5929;51.906;7.674;2024-01-16T05:15:30;21.77;;;6.93;;
11743;SDS011;5929;51.906;7.674;2024-01-16T05:17:57;15.43;;;6.65;;
11743;SDS011;5929;51.906;7.674;2024-01-16T05:20:24;16.13;;;6.43;;
11743;SDS011;5929;51.906;7.674;2024-01-16T05:22:51;12.55;;;6.50;;
11743;SDS011;5929;51.906;7.674;2024-01-16T05:25:18;14.90;;;6.75;;
11743;SDS011;5929;51.906;7.674;2024-01-16T05:27:45;16.00;;;7.00;;
11743;SDS011;5929;51.906;7.674;2024-01-16T05:30:12;15.10;;;7.65;;
11743;SDS011;5929;51.906;7.674;2024-01-16T05:32:40;14.48;;;6.88;;
11743;SDS011;5929;51.906;7.674;2024-01-16T05:35:07;18.92;;;6.75;;
11743;SDS011;5929;51.906;7.674;2024-01-16T05:37:35;18.63;;;6.80;;
11743;SDS011;5929;51.906;7.674;2024-01-16T05:40:02;18.67;;;7.00;;
11743;SDS011;5929;51.906;7.674;2024-01-16T05:42:31;11.93;;;6.47;;
11743;SDS011;5929;51.906;7.674;2024-01-16T05:44:57;17.40;;;7.22;;
11743;SDS011;5929;51.906;7.674;2024-01-16T05:47:24;15.80;;;7.20;;
11743;SDS011;5929;51.906;7.674;2024-01-16T05:49:54;15.27;;;7.30;;
11743;SDS011;5929;51.906;7.674;2024-01-16T05:52:21;15.43;;;6.55;;
11743;SDS011;5929;51.906;7.674;2024-01-16T05:54:48;14.38;;;6.80;;
11743;SDS011;5929;51.906;7.674;2024-01-16T05:57:15;18.42;;;7.57;;
11743;SDS011;5929;51.906;7.674;2024-01-16T05:59:42;13.02;;;7.22;;
11743;SDS011;5929;51.906;7.674;2024-01-16T06:02:08;16.55;;;7.32;;
11743;SDS011;5929;51.906;7.674;2024-01-16T06:04:35;15.50;;;7.25;;
11743;SDS011;5929;51.906;7.674;2024-01-16T06:07:04;16.50;;;7.47;;
11743;SDS011;5929;51.906;7.674;2024-01-16T06:09:37;10.20;;;6.15;;
11743;SDS011;5929;51.906;7.674;2024-01-16T06:12:05;11.40;;;6.88;;
11743;SDS011;5929;51.906;7.674;2024-01-16T06:14:33;15.63;;;7.63;;
11743;SDS011;5929;51.906;7.674;2024-01-16T06:17:00;12.65;;;6.60;;
11743;SDS011;5929;51.906;7.674;2024-01-16T06:19:28;16.20;;;7.20;;
11743;SDS011;5929;51.906;7.674;2024-01-16T06:21:55;12.82;;;6.85;;
11743;SDS011;5929;51.906;7.674;2024-01-16T06:24:23;17.42;;;7.18;;
11743;SDS011;5929;51.906;7.674;2024-01-16T06:26:50;13.63;;;6.40;;
11743;SDS011;5929;51.906;7.674;2024-01-16T06:29:19;13.13;;;7.00;;
11743;SDS011;5929;51.906;7.674;2024-01-16T06:31:46;12.60;;;6.97;;
11743;SDS011;5929;51.906;7.674;2024-01-16T06:34:13;13.80;;;6.55;;
11743;SDS011;5929;51.906;7.674;2024-01-16T06:36:39;15.20;;;6.85;;
11743;SDS011;5929;51.906;7.674;2024-01-16T06:39:06;20.90;;;7.35;;
11743;SDS011;5929;51.906;7.674;2024-01-16T06:41:34;19.10;;;7.18;;
11743;SDS011;5929;51.906;7.674;2024-01-16T06:44:01;15.02;;;6.80;;
11743;SDS011;5929;51.906;7.674;2024-01-16T06:46:28;14.60;;;7.00;;
11743;SDS011;5929;51.906;7.674;2024-01-16T06:48:55;12.05;;;6.72;;
11743;SDS011;5929;51.906;7.674;2024-01-16T06:51:22;12.00;;;6.38;;
11743;SDS011;5929;51.906;7.674;2024-01-16T06:53:49;13.75;;;6.45;;
11743;SDS011;5929;51.906;7.674;2024-01-16T06:56:16;13.27;;;6.53;;
11743;SDS011;5929;51.906;7.674;2024-01-16T06:58:46;11.13;;;6.60;;
11743;SDS011;5929;51.906;7.674;2024-01-16T07:01:13;17.40;;;6.57;;
11743;SDS011;5929;51.906;7.674;2024-01-16T07:03:40;12.70;;;6.68;;
11743;SDS011;5929;51.906;7.674;2024-01-16T07:06:07;14.50;;;6.63;;
11743;SDS011;5929;51.906;7.674;2024-01-16T07:08:34;11.68;;;5.32;;
11743;SDS011;5929;51.906;7.674;2024-01-16T07:11:01;12.43;;;5.97;;
11743;SDS011;5929;51.906;7.674;2024-01-16T07:13:27;11.30;;;5.93;;
11743;SDS011;5929;51.906;7.674;2024-01-16T07:15:55;10.68;;;6.60;;
11743;SDS011;5929;51.906;7.674;2024-01-16T07:18:23;15.20;;;6.45;;
11743;SDS011;5929;51.906;7.674;2024-01-16T07:20:50;13.18;;;5.93;;
11743;SDS011;5929;51.906;7.674;2024-01-16T07:23:17;11.23;;;6.28;;
11743;SDS011;5929;51.906;7.674;2024-01-16T07:25:43;11.15;;;6.03;;
11743;SDS011;5929;51.906;7.674;2024-01-16T07:28:10;12.05;;;5.95;;
11743;SDS011;5929;51.906;7.674;2024-01-16T07:30:38;11.35;;;5.70;;
11743;SDS011;5929;51.906;7.674;2024-01-16T07:33:06;11.55;;;5.85;;
11743;SDS011;5929;51.906;7.674;2024-01-16T07:35:33;10.43;;;5.97;;
11743;SDS011;5929;51.906;7.674;2024-01-16T07:38:00;14.05;;;6.15;;
11743;SDS011;5929;51.906;7.674;2024-01-16T07:40:26;13.20;;;6.20;;
11743;SDS011;5929;51.906;7.674;2024-01-16T07:42:53;14.23;;;6.13;;
11743;SDS011;5929;51.906;7.674;2024-01-16T07:45:20;11.77;;;5.90;;
11743;SDS011;5929;51.906;7.674;2024-01-16T07:47:47;11.75;;;6.28;;
11743;SDS011;5929;51.906;7.674;2024-01-16T07:50:15;12.45;;;6.15;;
11743;SDS011;5929;51.906;7.674;2024-01-16T07:52:42;11.07;;;5.20;;
11743;SDS011;5929;51.906;7.674;2024-01-16T07:55:09;10.77;;;5.38;;
11743;SDS011;5929;51.906;7.674;2024-01-16T07:57:36;14.30;;;5.72;;
11743;SDS011;5929;51.906;7.674;2024-01-16T08:00:03;9.82;;;5.25;;
11743;SDS011;5929;51.906;7.674;2024-01-16T08:02:31;11.38;;;5.07;;
11743;SDS011;5929;51.906;7.674;2024-01-16T08:04:58;12.55;;;5.30;;
11743;SDS011;5929;51.906;7.674;2024-01-16T08:07:27;10.10;;;5.97;;
11743;SDS011;5929;51.906;7.674;2024-01-16T08:09:54;9.40;;;5.10;;
11743;SDS011;5929;51.906;7.674;2024-01-16T08:12:21;13.18;;;5.10;;
11743;SDS011;5929;51.906;7.674;2024-01-16T08:14:48;9.80;;;5.38;;
11743;SDS011;5929;51.906;7.674;2024-01-16T08:17:15;11.85;;;5.47;;
11743;SDS011;5929;51.906;7.674;2024-01-16T08:19:42;13.68;;;6.10;;
11743;SDS011;5929;51.906;7.674;2024-01-16T08:22:09;11.48;;;5.60;;
11743;SDS011;5929;51.906;7.674;2024-01-16T08:24:37;13.25;;;6.03;;
11743;SDS011;5929;51.906;7.674;2024-01-16T08:27:07;14.90;;;5.93;;
11743;SDS011;5929;51.906;7.674;2024-01-16T08:29:33;12.23;;;5.78;;
11743;SDS011;5929;51.906;7.674;2024-01-16T08:32:00;12.35;;;5.82;;
11743;SDS011;5929;51.906;7.674;2024-01-16T08:34:27;12.10;;;6.35;;
11743;SDS011;5929;51.906;7.674;2024-01-16T08:36:54;21.17;;;7.18;;
11743;SDS011;5929;51.906;7.674;2024-01-16T08:39:22;15.20;;;7.57;;
11743;SDS011;5929;51.906;7.674;2024-01-16T08:41:50;13.57;;;7.05;;
11743;SDS011;5929;51.906;7.674;2024-01-16T08:44:17;17.92;;;7.13;;
11743;SDS011;5929;51.906;7.674;2024-01-16T08:46:44;16.73;;;8.25;;
11743;SDS011;5929;51.906;7.674;2024-01-16T08:49:11;20.17;;;8.57;;
11743;SDS011;5929;51.906;7.674;2024-01-16T08:51:39;17.42;;;9.13;;
11743;SDS011;5929;51.906;7.674;2024-01-16T08:54:06;17.13;;;9.80;;
11743;SDS011;5929;51.906;7.674;2024-01-16T08:56:33;19.45;;;11.25;;
11743;SDS011;5929;51.906;7.674;2024-01-16T08:59:01;22.85;;;11.25;;
11743;SDS011;5929;51.906;7.674;2024-01-16T09:01:28;21.58;;;12.02;;
11743;SDS011;5929;51.906;7.674;2024-01-16T09:03:55;26.15;;;13.20;;
11743;SDS011;5929;51.906;7.674;2024-01-16T09:06:22;24.70;;;13.10;;
11743;SDS011;5929;51.906;7.674;2024-01-16T09:08:49;24.80;;;12.32;;
11743;SDS011;5929;51.906;7.674;2024-01-16T09:11:16;20.67;;;11.95;;
11743;SDS011;5929;51.906;7.674;2024-01-16T09:13:43;24.85;;;12.38;;
11743;SDS011;5929;51.906;7.674;2024-01-16T09:16:11;28.45;;;14.45;;
11743;SDS011;5929;51.906;7.674;2024-01-16T09:18:38;27.65;;;14.75;;
11743;SDS011;5929;51.906;7.674;2024-01-16T09:21:05;23.17;;;13.10;;
11743;SDS011;5929;51.906;7.674;2024-01-16T09:23:31;26.35;;;14.70;;
11743;SDS011;5929;51.906;7.674;2024-01-16T09:25:58;26.20;;;14.00;;
11743;SDS011;5929;51.906;7.674;2024-01-16T09:28:25;25.73;;;14.15;;
11743;SDS011;5929;51.906;7.674;2024-01-16T09:30:53;29.15;;;15.10;;
11743;SDS011;5929;51.906;7.674;2024-01-16T09:33:22;24.02;;;13.98;;
11743;SDS011;5929;51.906;7.674;2024-01-16T09:35:50;24.70;;;13.85;;
11743;SDS011;5929;51.906;7.674;2024-01-16T09:38:17;25.15;;;13.55;;
11743;SDS011;5929;51.906;7.674;2024-01-16T09:40:44;25.00;;;13.35;;
11743;SDS011;5929;51.906;7.674;2024-01-16T09:43:13;27.52;;;14.10;;
11743;SDS011;5929;51.906;7.674;2024-01-16T09:45:40;23.85;;;13.55;;
11743;SDS011;5929;51.906;7.674;2024-01-16T09:48:07;28.30;;;13.93;;
11743;SDS011;5929;51.906;7.674;2024-01-16T09:50:36;25.90;;;14.00;;
11743;SDS011;5929;51.906;7.674;2024-01-16T09:53:03;20.90;;;13.40;;
11743;SDS011;5929;51.906;7.674;2024-01-16T09:55:30;21.52;;;13.23;;
11743;SDS011;5929;51.906;7.674;2024-01-16T09:57:57;22.40;;;12.32;;
11743;SDS011;5929;51.906;7.674;2024-01-16T10:00:24;20.63;;;12.50;;
11743;SDS011;5929;51.906;7.674;2024-01-16T10:02:52;20.88;;;12.25;;
11743;SDS011;5929;51.906;7.674;2024-01-16T10:05:23;20.10;;;11.82;;
11743;SDS011;5929;51.906;7.674;2024-01-16T10:07:52;20.17;;;10.38;;
11743;SDS011;5929;51.906;7.674;2024-01-16T10:10:21;20.60;;;9.25;;
11743;SDS011;5929;51.906;7.674;2024-01-16T10:12:48;15.13;;;8.05;;
11743;SDS011;5929;51.906;7.674;2024-01-16T10:15:16;16.73;;;7.22;;
11743;SDS011;5929;51.906;7.674;2024-01-16T10:17:45;12.82;;;5.93;;
11743;SDS011;5929;51.906;7.674;2024-01-16T10:20:12;14.35;;;6.78;;
11743;SDS011;5929;51.906;7.674;2024-01-16T10:22:42;14.10;;;7.07;;
11743;SDS011;5929;51.906;7.674;2024-01-16T10:25:20;14.60;;;6.57;;
11743;SDS011;5929;51.906;7.674;2024-01-16T10:27:48;14.48;;;5.82;;
11743;SDS011;5929;51.906;7.674;2024-01-16T10:30:15;11.48;;;5.55;;
11743;SDS011;5929;51.906;7.674;2024-01-16T10:32:48;10.48;;;5.50;;
11743;SDS011;5929;51.906;7.674;2024-01-16T10:35:15;11.68;;;5.78;;
11743;SDS011;5929;51.906;7.674;2024-01-16T10:37:42;9.15;;;4.82;;
11743;SDS011;5929;51.906;7.674;2024-01-16T10:40:12;9.45;;;4.75;;
11743;SDS011;5929;51.906;7.674;2024-01-16T10:42:41;9.07;;;4.55;;
11743;SDS011;5929;51.906;7.674;2024-01-16T10:45:15;14.88;;;4.32;;
11743;SDS011;5929;51.906;7.674;2024-01-16T10:47:45;10.25;;;4.78;;
11743;SDS011;5929;51.906;7.674;2024-01-16T10:50:12;12.68;;;4.82;;
11743;SDS011;5929;51.906;7.674;2024-01-16T10:52:41;12.95;;;4.70;;
11743;SDS011;5929;51.906;7.674;2024-01-16T10:55:19;12.60;;;4.10;;
11743;SDS011;5929;51.906;7.674;2024-01-16T10:57:48;11.07;;;4.88;;
11743;SDS011;5929;51.906;7.674;2024-01-16T11:00:16;13.07;;;4.57;;
11743;SDS011;5929;51.906;7.674;2024-01-16T11:02:49;13.10;;;4.40;;
11743;SDS011;5929;51.906;7.674;2024-01-16T11:05:17;15.25;;;4.55;;
11743;SDS011;5929;51.906;7.674;2024-01-16T11:07:45;13.32;;;4.18;;
11743;SDS011;5929;51.906;7.674;2024-01-16T11:10:14;10.82;;;4.32;;
11743;SDS011;5929;51.906;7.674;2024-01-16T11:12:42;11.63;;;4.15;;
11743;SDS011;5929;51.906;7.674;2024-01-16T11:15:11;8.48;;;4.13;;
11743;SDS011;5929;51.906;7.674;2024-01-16T11:17:38;7.90;;;4.07;;
11743;SDS011;5929;51.906;7.674;2024-01-16T11:20:08;14.45;;;4.88;;
11743;SDS011;5929;51.906;7.674;2024-01-16T11:22:38;13.02;;;4.50;;
11743;SDS011;5929;51.906;7.674;2024-01-16T11:25:08;13.02;;;4.65;;
11743;SDS011;5929;51.906;7.674;2024-01-16T11:27:36;11.40;;;4.88;;
11743;SDS011;5929;51.906;7.674;2024-01-16T11:30:05;10.90;;;5.07;;
11743;SDS011;5929;51.906;7.674;2024-01-16T11:32:33;13.65;;;4.85;;
11743;SDS011;5929;51.906;7.674;2024-01-16T11:35:02;11.55;;;4.00;;
11743;SDS011;5929;51.906;7.674;2024-01-16T11:37:29;11.98;;;4.28;;
11743;SDS011;5929;51.906;7.674;2024-01-16T11:42:47;11.77;;;5.00;;
11743;SDS011;5929;51.906;7.674;2024-01-16T11:48:19;9.07;;;3.88;;
11743;SDS011;5929;51.906;7.674;2024-01-16T11:50:46;9.98;;;3.65;;
11743;SDS011;5929;51.906;7.674;2024-01-16T11:53:35;11.63;;;4.03;;
11743;SDS011;5929;51.906;7.674;2024-01-16T11:59:04;11.40;;;4.00;;
11743;SDS011;5929;51.906;7.674;2024-01-16T12:01:45;11.32;;;4.40;;
11743;SDS011;5929;51.906;7.674;2024-01-16T12:04:18;13.77;;;3.92;;
11743;SDS011;5929;51.906;7.674;2024-01-16T12:06:56;12.05;;;4.05;;
11743;SDS011;5929;51.906;7.674;2024-01-16T12:09:25;9.02;;;3.58;;
11743;SDS011;5929;51.906;7.674;2024-01-16T12:11:55;11.55;;;4.00;;
11743;SDS011;5929;51.906;7.674;2024-01-16T12:14:23;10.60;;;3.63;;
11743;SDS011;5929;51.906;7.674;2024-01-16T12:16:51;12.38;;;3.63;;
11743;SDS011;5929;51.906;7.674;2024-01-16T12:19:18;9.85;;;3.75;;
11743;SDS011;5929;51.906;7.674;2024-01-16T12:21:45;9.68;;;3.22;;
11743;SDS011;5929;51.906;7.674;2024-01-16T12:24:12;9.48;;;3.30;;
11743;SDS011;5929;51.906;7.674;2024-01-16T12:26:39;8.07;;;3.50;;
11743;SDS011;5929;51.906;7.674;2024-01-16T12:29:06;10.18;;;3.38;;
11743;SDS011;5929;51.906;7.674;2024-01-16T12:31:34;8.75;;;3.25;;
11743;SDS011;5929;51.906;7.674;2024-01-16T12:34:05;10.90;;;4.32;;
11743;SDS011;5929;51.906;7.674;2024-01-16T12:36:33;11.25;;;3.78;;
11743;SDS011;5929;51.906;7.674;2024-01-16T12:39:00;12.95;;;3.95;;
11743;SDS011;5929;51.906;7.674;2024-01-16T12:41:27;7.78;;;3.22;;
11743;SDS011;5929;51.906;7.674;2024-01-16T12:43:58;7.15;;;3.10;;
11743;SDS011;5929;51.906;7.674;2024-01-16T12:46:25;9.35;;;3.33;;
11743;SDS011;5929;51.906;7.674;2024-01-16T12:48:52;10.27;;;3.00;;
11743;SDS011;5929;51.906;7.674;2024-01-16T12:51:21;6.85;;;2.97;;
11743;SDS011;5929;51.906;7.674;2024-01-16T12:53:48;11.85;;;4.68;;
11743;SDS011;5929;51.906;7.674;2024-01-16T12:56:18;8.82;;;3.53;;
11743;SDS011;5929;51.906;7.674;2024-01-16T12:58:45;8.77;;;4.07;;
11743;SDS011;5929;51.906;7.674;2024-01-16T13:01:21;12.68;;;3.40;;
11743;SDS011;5929;51.906;7.674;2024-01-16T13:03:49;14.73;;;3.88;;
11743;SDS011;5929;51.906;7.674;2024-01-16T13:06:17;10.10;;;3.10;;
11743;SDS011;5929;51.906;7.674;2024-01-16T13:08:46;14.43;;;3.97;;
11743;SDS011;5929;51.906;7.674;2024-01-16T13:11:16;10.40;;;3.53;;
11743;SDS011;5929;51.906;7.674;2024-01-16T13:13:45;7.35;;;2.63;;
11743;SDS011;5929;51.906;7.674;2024-01-16T13:16:13;8.95;;;3.38;;
11743;SDS011;5929;51.906;7.674;2024-01-16T13:18:42;10.05;;;3.17;;
11743;SDS011;5929;51.906;7.674;2024-01-16T13:21:09;7.32;;;3.17;;
11743;SDS011;5929;51.906;7.674;2024-01-16T13:23:36;11.05;;;3.20;;
11743;SDS011;5929;51.906;7.674;2024-01-16T13:26:04;12.15;;;3.58;;
11743;SDS011;5929;51.906;7.674;2024-01-16T13:28:32;7.40;;;2.88;;
11743;SDS011;5929;51.906;7.674;2024-01-16T13:30:59;8.35;;;3.50;;
11743;SDS011;5929;51.906;7.674;2024-01-16T13:33:26;8.20;;;3.67;;
11743;SDS011;5929;51.906;7.674;2024-01-16T13:35:53;11.07;;;3.53;;
11743;SDS011;5929;51.906;7.674;2024-01-16T13:38:20;8.45;;;2.85;;
11743;SDS011;5929;51.906;7.674;2024-01-16T13:40:47;9.85;;;2.70;;
11743;SDS011;5929;51.906;7.674;2024-01-16T13:43:16;14.90;;;3.78;;
11743;SDS011;5929;51.906;7.674;2024-01-16T13:45:43;10.20;;;3.63;;
11743;SDS011;5929;51.906;7.674;2024-01-16T13:48:14;10.20;;;3.03;;
11743;SDS011;5929;51.906;7.674;2024-01-16T13:50:42;8.00;;;2.78;;
11743;SDS011;5929;51.906;7.674;2024-01-16T13:53:09;8.93;;;2.70;;
11743;SDS011;5929;51.906;7.674;2024-01-16T13:55:38;10.77;;;2.78;;
11743;SDS011;5929;51.906;7.674;2024-01-16T13:58:06;7.68;;;2.85;;
11743;SDS011;5929;51.906;7.674;2024-01-16T14:00:34;8.35;;;3.40;;
11743;SDS011;5929;51.906;7.674;2024-01-16T14:03:01;10.10;;;3.25;;
11743;SDS011;5929;51.906;7.674;2024-01-16T14:05:30;8.18;;;3.22;;
11743;SDS011;5929;51.906;7.674;2024-01-16T14:07:57;8.50;;;3.30;;
11743;SDS011;5929;51.906;7.674;2024-01-16T14:10:26;8.68;;;2.80;;
11743;SDS011;5929;51.906;7.674;2024-01-16T14:12:53;10.18;;;2.90;;
11743;SDS011;5929;51.906;7.674;2024-01-16T14:15:21;8.13;;;2.72;;
11743;SDS011;5929;51.906;7.674;2024-01-16T14:17:50;11.70;;;3.28;;
11743;SDS011;5929;51.906;7.674;2024-01-16T14:20:18;9.55;;;2.75;;
11743;SDS011;5929;51.906;7.674;2024-01-16T14:22:48;9.10;;;3.00;;
11743;SDS011;5929;51.906;7.674;2024-01-16T14:25:15;9.27;;;2.67;;
11743;SDS011;5929;51.906;7.674;2024-01-16T14:27:44;9.48;;;3.25;;
11743;SDS011;5929;51.906;7.674;2024-01-16T14:30:12;9.82;;;2.72;;
11743;SDS011;5929;51.906;7.674;2024-01-16T14:32:41;8.27;;;3.25;;
11743;SDS011;5929;51.906;7.674;2024-01-16T14:35:11;9.50;;;3.45;;
11743;SDS011;5929;51.906;7.674;2024-01-16T14:37:39;7.80;;;2.85;;
11743;SDS011;5929;51.906;7.674;2024-01-16T14:40:07;11.50;;;3.10;;
11743;SDS011;5929;51.906;7.674;2024-01-16T14:42:40;7.97;;;3.00;;
11743;SDS011;5929;51.906;7.674;2024-01-16T14:45:07;8.68;;;2.53;;
11743;SDS011;5929;51.906;7.674;2024-01-16T14:47:36;9.68;;;3.15;;
11743;SDS011;5929;51.906;7.674;2024-01-16T14:50:03;10.23;;;3.03;;
11743;SDS011;5929;51.906;7.674;2024-01-16T14:52:35;8.35;;;2.95;;
11743;SDS011;5929;51.906;7.674;2024-01-16T14:55:02;6.28;;;2.83;;
11743;SDS011;5929;51.906;7.674;2024-01-16T14:57:32;7.53;;;3.00;;
11743;SDS011;5929;51.906;7.674;2024-01-16T15:00:03;9.60;;;3.28;;